Time;durP1;ratioP1;P1;durP2;ratioP2;P2;SDS_P1;SDS_P2;PMS_P1;PMS_P2;Temp;Humidity;BMP_temperature;BMP_pressure;BME280_temperature;BME280_humidity;BME280_pressure;Samples;Min_cycle;Max_cycle;Signal;HPM_P1;HPM_P2
2021/08/20 00:00:11;;;;;;;;;3.00;3.00;;;;;21.21;50.33;101131.28;5039875;27;45584;-54
2021/08/20 00:02:36;;;;;;;;;3.67;3.67;;;;;21.23;50.88;101123.09;5076125;27;45422;-53
2021/08/20 00:05:03;;;;;;;;;3.00;3.00;;;;;21.24;50.76;101127.53;5056096;28;45378;-53
2021/08/20 00:07:29;;;;;;;;;3.00;3.00;;;;;21.25;50.79;101121.19;5056740;28;45451;-55
2021/08/20 00:09:56;;;;;;;;;5.67;4.33;;;;;21.27;51.02;101127.38;5062809;28;45357;-54
2021/08/20 00:12:22;;;;;;;;;3.00;3.00;;;;;21.27;50.85;101122.84;5063616;28;45453;-54
2021/08/20 00:14:48;;;;;;;;;3.00;3.00;;;;;21.29;50.55;101125.47;5072819;28;48374;-54
2021/08/20 00:17:14;;;;;;;;;4.00;4.00;;;;;21.30;51.02;101119.09;5066318;27;45507;-52
2021/08/20 00:19:39;;;;;;;;;2.00;2.00;;;;;21.31;50.48;101119.00;5072977;28;45388;-54
2021/08/20 00:22:05;;;;;;;;;2.00;2.00;;;;;21.31;50.68;101118.13;5073744;27;45895;-55
2021/08/20 00:24:32;;;;;;;;;5.67;4.33;;;;;21.30;50.32;101119.09;5073196;28;48450;-53
2021/08/20 00:26:57;;;;;;;;;4.00;4.00;;;;;21.28;50.74;101116.50;5074013;27;45970;-53
2021/08/20 00:29:23;;;;;;;;;2.00;2.00;;;;;21.28;50.69;101124.59;5067340;28;45634;-53
2021/08/20 00:31:48;;;;;;;;;3.00;3.00;;;;;21.28;50.42;101123.72;5058602;28;45294;-54
2021/08/20 00:34:14;;;;;;;;;5.00;5.00;;;;;21.29;50.61;101117.34;5073694;28;45671;-54
2021/08/20 00:36:40;;;;;;;;;4.33;3.00;;;;;21.31;50.80;101118.13;5074118;28;45315;-54
2021/08/20 00:39:05;;;;;;;;;4.00;4.00;;;;;21.32;50.97;101119.88;5067428;28;45440;-54
2021/08/20 00:41:31;;;;;;;;;4.00;4.00;;;;;21.32;50.34;101119.88;5069451;28;45425;-56
2021/08/20 00:43:57;;;;;;;;;2.67;2.67;;;;;21.31;50.46;101118.13;5073480;28;47511;-53
2021/08/20 00:46:23;;;;;;;;;2.67;2.67;;;;;21.31;50.48;101112.72;5069435;28;45479;-55
2021/08/20 00:48:48;;;;;;;;;3.00;3.00;;;;;21.32;50.45;101115.34;5072937;28;45668;-51
2021/08/20 00:51:25;;;;;;;;;5.33;5.00;;;;;21.32;50.79;101117.16;5072327;28;45420;-53
2021/08/20 00:53:52;;;;;;;;;3.33;3.33;;;;;21.31;50.83;101113.59;5073866;27;46440;-54
2021/08/20 00:56:18;;;;;;;;;4.33;3.33;;;;;21.30;51.11;101111.88;5071438;27;45348;-53
2021/08/20 00:58:47;;;;;;;;;4.00;4.00;;;;;21.34;50.62;101117.94;5074478;28;45873;-54
2021/08/20 01:01:12;;;;;;;;;3.33;3.33;;;;;21.34;50.80;101110.75;5070688;27;45625;-52
2021/08/20 01:03:38;;;;;;;;;2.00;2.00;;;;;21.35;50.81;101104.38;5074278;28;46220;-54
2021/08/20 01:06:08;;;;;;;;;7.00;5.00;;;;;21.35;50.35;101096.28;5071189;27;45619;-54
2021/08/20 01:08:36;;;;;;;;;3.00;3.00;;;;;21.36;50.72;101097.16;5054422;28;45866;-54
2021/08/20 01:11:04;;;;;;;;;3.00;3.00;;;;;21.36;50.94;101092.63;5067176;28;45357;-52
2021/08/20 01:13:32;;;;;;;;;4.67;4.67;;;;;21.38;50.93;101095.22;5078497;28;47386;-54
2021/08/20 01:15:59;;;;;;;;;5.00;5.00;;;;;21.38;50.92;101093.38;5079223;27;45895;-53
2021/08/20 01:18:26;;;;;;;;;3.00;3.00;;;;;21.39;50.48;101092.41;5080244;27;45698;-53
2021/08/20 01:20:57;;;;;;;;;4.33;3.67;;;;;21.42;50.72;101091.34;5077900;27;45505;-54
2021/08/20 01:23:23;;;;;;;;;4.33;4.00;;;;;21.41;50.77;101089.63;5079769;27;47476;-54
2021/08/20 01:25:48;;;;;;;;;3.00;3.00;;;;;21.41;50.98;101095.03;5077479;28;45683;-51
2021/08/20 01:28:14;;;;;;;;;4.67;4.00;;;;;21.42;50.81;101094.94;5074018;27;45356;-53
2021/08/20 01:30:40;;;;;;;;;4.00;3.67;;;;;21.42;50.42;101089.53;5064918;28;45333;-53
2021/08/20 01:33:06;;;;;;;;;3.00;3.00;;;;;21.40;50.81;101085.19;5079701;28;48461;-54
2021/08/20 01:35:33;;;;;;;;;2.00;2.00;;;;;21.38;50.78;101085.28;5078912;27;45997;-53
2021/08/20 01:37:58;;;;;;;;;3.67;3.67;;;;;21.40;50.46;101087.88;5075188;28;45293;-52
2021/08/20 01:40:24;;;;;;;;;5.00;3.00;;;;;21.41;50.98;101086.91;5062082;28;45636;-53
2021/08/20 01:42:49;;;;;;;;;3.67;3.67;;;;;21.41;51.01;101084.22;5079272;27;48454;-54
2021/08/20 01:45:15;;;;;;;;;4.00;4.00;;;;;21.41;51.08;101082.38;5077590;28;45487;-53
2021/08/20 01:47:40;;;;;;;;;3.00;3.00;;;;;21.42;50.70;101084.13;5071365;27;45309;-53
2021/08/20 01:50:07;;;;;;;;;4.00;4.00;;;;;21.40;50.94;101079.78;5078685;27;45292;-52
2021/08/20 01:52:33;;;;;;;;;4.00;4.00;;;;;21.40;50.62;101077.97;5079483;27;47678;-52
2021/08/20 01:54:58;;;;;;;;;3.33;3.33;;;;;21.41;51.06;101078.81;5078478;27;45751;-53
2021/08/20 01:57:24;;;;;;;;;3.33;3.33;;;;;21.42;50.79;101069.75;5079485;27;45313;-54
2021/08/20 01:59:49;;;;;;;;;3.67;3.67;;;;;21.42;51.13;101073.31;5078943;27;45357;-53
2021/08/20 02:02:15;;;;;;;;;3.00;3.00;;;;;21.41;50.80;101063.50;5074923;27;45485;-54
2021/08/20 02:04:40;;;;;;;;;3.00;3.00;;;;;21.41;51.01;101073.44;5078580;27;45336;-55
2021/08/20 02:07:06;;;;;;;;;4.33;4.33;;;;;21.41;51.21;101068.88;5078112;28;45416;-51
2021/08/20 02:09:31;;;;;;;;;3.00;3.00;;;;;21.41;51.19;101062.63;5063180;28;45365;-52
2021/08/20 02:11:57;;;;;;;;;5.67;4.00;;;;;21.35;50.63;101063.88;5071050;28;48318;-53
2021/08/20 02:14:22;;;;;;;;;3.33;2.67;;;;;21.30;51.37;101063.28;5059353;28;45355;-52
2021/08/20 02:16:48;;;;;;;;;2.33;2.33;;;;;21.28;51.10;101067.91;5059558;28;45228;-54
2021/08/20 02:19:13;;;;;;;;;4.33;3.33;;;;;21.25;51.25;101067.19;5092578;27;45302;-54
2021/08/20 02:21:39;;;;;;;;;4.33;4.33;;;;;21.25;51.12;101067.19;5059312;28;47287;-54
2021/08/20 02:24:05;;;;;;;;;4.00;4.00;;;;;21.26;51.29;101075.22;5058317;28;45322;-53
2021/08/20 02:26:30;;;;;;;;;3.33;3.33;;;;;21.27;51.59;101066.16;5057927;28;45386;-52
2021/08/20 02:28:56;;;;;;;;;4.00;4.00;;;;;21.29;51.08;101072.34;5059591;28;45493;-53
2021/08/20 02:31:21;;;;;;;;;3.67;3.67;;;;;21.31;51.15;101069.53;5052924;28;45447;-52
2021/08/20 02:33:48;;;;;;;;;3.00;3.00;;;;;21.32;51.78;101064.03;5051919;28;47616;-54
2021/08/20 02:36:14;;;;;;;;;4.00;4.00;;;;;21.33;51.69;101068.47;5059095;28;45408;-53
2021/08/20 02:38:39;;;;;;;;;3.00;3.00;;;;;21.35;51.55;101071.13;5058757;28;45448;-54
2021/08/20 02:41:05;;;;;;;;;3.67;3.67;;;;;21.37;51.64;101071.88;5056430;28;45547;-54
2021/08/20 02:43:30;;;;;;;;;4.00;4.00;;;;;21.36;51.45;101075.53;5050129;28;45570;-54
2021/08/20 02:45:56;;;;;;;;;4.00;3.00;;;;;21.38;51.68;101071.78;5041690;28;45362;-58
2021/08/20 02:48:25;;;;;;;;;5.00;5.00;;;;;21.38;51.56;101079.88;5059184;28;45458;-59
2021/08/20 02:50:51;;;;;;;;;5.00;5.00;;;;;21.40;51.65;101072.56;5057584;28;47437;-54
2021/08/20 02:53:16;;;;;;;;;3.00;3.00;;;;;21.42;51.50;101067.94;5058707;28;45283;-57
2021/08/20 02:55:42;;;;;;;;;26.00;22.50;;;;;21.44;51.66;101070.53;5058885;28;45332;-53
2021/08/20 02:58:07;;;;;;;;;9.33;7.67;;;;;21.45;51.73;101074.97;5057795;28;45724;-55
2021/08/20 03:00:33;;;;;;;;;6.67;6.67;;;;;21.47;51.80;101072.16;5058526;28;47444;-53
2021/08/20 03:02:58;;;;;;;;;5.00;5.00;;;;;21.47;51.43;101072.16;5057472;28;45685;-52
2021/08/20 03:05:24;;;;;;;;;4.00;4.00;;;;;21.48;51.65;101074.81;5058734;28;45321;-54
2021/08/20 03:07:49;;;;;;;;;4.33;3.33;;;;;21.49;51.54;101072.97;5049178;28;45643;-53
2021/08/20 03:10:15;;;;;;;;;3.00;3.00;;;;;21.48;51.52;101076.63;5061642;28;48344;-54
2021/08/20 03:12:40;;;;;;;;;5.00;4.00;;;;;21.48;51.44;101068.53;5070661;28;45271;-63
2021/08/20 03:15:07;;;;;;;;;3.00;3.00;;;;;21.48;51.67;101072.09;5063307;28;45502;-62
2021/08/20 03:17:33;;;;;;;;;5.00;3.33;;;;;21.48;51.10;101074.81;5072017;28;45669;-62
2021/08/20 03:19:58;;;;;;;;;4.00;4.00;;;;;21.45;51.06;101072.25;5053316;28;46969;-62
2021/08/20 03:22:24;;;;;;;;;5.33;4.67;;;;;21.42;51.29;101065.22;5076512;27;45658;-65
2021/08/20 03:24:49;;;;;;;;;5.00;4.00;;;;;21.42;51.54;101067.94;5052963;28;45405;-62
2021/08/20 03:27:15;;;;;;;;;5.67;5.00;;;;;21.44;51.69;101062.44;5073040;28;45430;-62
2021/08/20 03:29:40;;;;;;;;;5.00;3.67;;;;;21.44;51.56;101060.59;5064008;28;47400;-63
2021/08/20 03:32:06;;;;;;;;;6.00;5.00;;;;;21.44;51.20;101057.03;5058217;28;45781;-62
2021/08/20 03:34:32;;;;;;;;;4.00;4.00;;;;;21.41;51.84;101054.53;5077399;28;45423;-62
2021/08/20 03:36:57;;;;;;;;;4.00;4.00;;;;;21.42;51.36;101061.66;5075925;27;45856;-62
2021/08/20 03:39:23;;;;;;;;;4.33;4.33;;;;;21.41;51.46;101051.81;5064557;28;47334;-63
2021/08/20 03:41:48;;;;;;;;;4.00;4.00;;;;;21.41;51.51;101054.53;5065505;28;45919;-63
2021/08/20 03:44:14;;;;;;;;;3.67;3.67;;;;;21.42;52.07;101072.47;5093870;27;45906;-63
2021/08/20 03:46:40;;;;;;;;;5.00;5.00;;;;;21.43;51.73;101066.97;5071181;27;45270;-63
2021/08/20 03:49:05;;;;;;;;;6.00;5.00;;;;;21.44;51.53;101068.69;5095093;27;47008;-61
2021/08/20 03:51:31;;;;;;;;;3.67;3.67;;;;;21.45;51.84;101065.03;5078599;27;45412;-62
2021/08/20 03:53:56;;;;;;;;;9.00;4.33;;;;;21.46;52.01;101074.00;5079479;28;45358;-61
2021/08/20 03:56:22;;;;;;;;;4.00;4.00;;;;;21.48;51.63;101069.41;5077649;28;45480;-61
2021/08/20 03:58:47;;;;;;;;;3.00;3.00;;;;;21.48;51.54;101073.94;5057647;28;47383;-61
2021/08/20 04:01:13;;;;;;;;;2.33;2.33;;;;;21.48;51.44;101071.22;5062607;27;45321;-61
2021/08/20 04:03:38;;;;;;;;;6.67;4.00;;;;;21.49;52.04;101076.53;5066196;28;45351;-61
2021/08/20 04:06:08;;;;;;;;;6.33;4.33;;;;;21.49;51.51;101076.53;5094706;27;45579;-61
2021/08/20 04:08:33;;;;;;;;;3.33;3.33;;;;;21.47;51.65;101077.56;5058408;27;46303;-62
2021/08/20 04:10:59;;;;;;;;;4.67;4.67;;;;;21.46;52.05;101079.41;5074162;28;45391;-61
2021/08/20 04:13:24;;;;;;;;;4.33;4.33;;;;;21.44;51.81;101078.63;5063877;27;45494;-61
2021/08/20 04:15:50;;;;;;;;;7.00;4.00;;;;;21.45;52.06;101080.38;5061077;27;45631;-61
2021/08/20 04:18:15;;;;;;;;;5.00;4.00;;;;;21.45;52.07;101085.75;5071022;28;46438;-62
2021/08/20 04:20:42;;;;;;;;;3.33;3.33;;;;;21.45;51.98;101085.75;5075576;27;45813;-62
2021/08/20 04:23:08;;;;;;;;;3.00;3.00;;;;;21.44;51.93;101089.44;5052488;28;45463;-62
2021/08/20 04:25:34;;;;;;;;;5.33;5.33;;;;;21.45;51.83;101088.47;5071216;28;45619;-62
2021/08/20 04:28:00;;;;;;;;;5.00;4.00;;;;;21.44;51.76;101089.44;5067241;28;48100;-61
2021/08/20 04:30:29;;;;;;;;;5.00;5.00;;;;;21.44;51.94;101101.09;5052257;28;45890;-62
2021/08/20 04:32:57;;;;;;;;;4.33;4.33;;;;;21.43;52.10;101091.25;5060499;28;45383;-62
2021/08/20 04:35:27;;;;;;;;;4.00;4.00;;;;;21.44;51.73;101095.69;5075325;27;45566;-62
2021/08/20 04:37:53;;;;;;;;;4.33;4.33;;;;;21.44;52.03;101089.44;5070653;28;47323;-64
2021/08/20 04:40:19;;;;;;;;;4.00;3.00;;;;;21.45;52.54;101092.03;5075028;27;45455;-61
2021/08/20 04:42:44;;;;;;;;;3.00;3.00;;;;;21.51;51.93;101089.94;5070310;28;45661;-61
2021/08/20 04:45:12;;;;;;;;;4.33;3.67;;;;;21.51;52.23;101093.50;5074703;27;45475;-61
2021/08/20 04:47:38;;;;;;;;;6.33;5.33;;;;;21.54;52.13;101095.13;5068827;28;47632;-61
2021/08/20 04:50:04;;;;;;;;;4.00;4.00;;;;;21.54;51.57;101092.44;5062699;28;45813;-62
2021/08/20 04:52:30;;;;;;;;;4.00;4.00;;;;;21.54;51.91;101098.72;5061833;28;45481;-62
2021/08/20 04:54:55;;;;;;;;;5.67;5.67;;;;;21.54;52.02;101101.41;5072544;27;45431;-62
2021/08/20 04:57:21;;;;;;;;;3.67;3.67;;;;;21.53;51.74;101105.06;5085244;27;48621;-63
2021/08/20 04:59:46;;;;;;;;;6.00;6.00;;;;;21.53;51.74;101106.91;5074858;27;45775;-63
2021/08/20 05:02:12;;;;;;;;;6.33;5.00;;;;;21.52;51.65;101099.78;5057437;28;45464;-62
2021/08/20 05:04:37;;;;;;;;;3.00;3.00;;;;;21.51;51.61;101104.31;5060661;28;45610;-62
2021/08/20 05:07:04;;;;;;;;;3.00;3.00;;;;;21.53;51.99;101104.22;5064796;27;45470;-63
2021/08/20 05:09:31;;;;;;;;;3.00;3.00;;;;;21.54;52.07;101109.50;5060881;27;45337;-62
2021/08/20 05:11:57;;;;;;;;;3.33;3.00;;;;;21.53;51.85;101110.47;5068305;28;45432;-63
2021/08/20 05:14:22;;;;;;;;;5.00;5.00;;;;;21.54;52.11;101103.25;5068481;28;46033;-63
2021/08/20 05:16:48;;;;;;;;;3.33;3.33;;;;;21.54;51.71;101105.94;5070074;27;47115;-64
2021/08/20 05:19:15;;;;;;;;;4.00;4.00;;;;;21.55;52.36;101110.38;5074227;27;45421;-62
2021/08/20 05:21:40;;;;;;;;;6.00;5.00;;;;;21.54;52.46;101104.13;5069056;27;45420;-63
2021/08/20 05:24:06;;;;;;;;;4.00;4.00;;;;;21.55;52.35;101108.53;5063030;28;45278;-63
2021/08/20 05:26:32;;;;;;;;;4.00;3.33;;;;;21.56;52.42;101104.88;5063068;28;46904;-63
2021/08/20 05:28:58;;;;;;;;;5.00;5.00;;;;;21.58;52.48;101110.19;5053368;28;46243;-63
2021/08/20 05:31:23;;;;;;;;;4.67;4.33;;;;;21.60;52.01;101114.56;5053186;28;45507;-63
2021/08/20 05:33:49;;;;;;;;;3.33;3.33;;;;;21.62;52.16;101119.84;5058670;28;45531;-62
2021/08/20 05:36:14;;;;;;;;;4.67;4.00;;;;;21.64;52.17;101112.53;5060144;28;46031;-62
2021/08/20 05:38:40;;;;;;;;;5.00;5.00;;;;;21.67;51.91;101117.72;5058516;28;45495;-62
2021/08/20 05:41:05;;;;;;;;;6.00;6.00;;;;;21.68;52.19;101116.75;5041899;28;45439;-62
2021/08/20 05:43:31;;;;;;;;;6.33;6.33;;;;;21.70;52.02;101118.41;5060294;28;45647;-63
2021/08/20 05:45:57;;;;;;;;;6.00;6.00;;;;;21.70;52.10;101117.53;5059861;27;47501;-63
2021/08/20 05:48:23;;;;;;;;;4.00;4.00;;;;;21.71;52.30;101120.13;5057736;28;45360;-62
2021/08/20 05:50:48;;;;;;;;;3.00;3.00;;;;;21.71;52.08;101117.44;5068624;28;45389;-62
2021/08/20 05:53:14;;;;;;;;;4.67;4.67;;;;;21.72;52.16;101126.41;5060246;28;45590;-62
2021/08/20 05:55:39;;;;;;;;;5.33;5.33;;;;;21.71;52.23;101124.66;5058494;28;46303;-62
2021/08/20 05:58:05;;;;;;;;;5.75;4.50;;;;;21.69;52.34;101122.06;5058430;28;45414;-62
2021/08/20 06:00:32;;;;;;;;;5.00;5.00;;;;;21.69;51.88;101124.78;5059995;28;45490;-62
2021/08/20 06:02:57;;;;;;;;;6.00;6.00;;;;;21.71;52.24;101124.66;5058763;27;45588;-62
2021/08/20 06:05:23;;;;;;;;;5.00;5.00;;;;;21.72;52.32;101129.13;5059199;28;47331;-62
2021/08/20 06:07:48;;;;;;;;;5.75;5.75;;;;;21.73;52.47;101129.03;5091376;27;45692;-62
2021/08/20 06:10:14;;;;;;;;;5.00;5.00;;;;;21.72;52.01;101115.59;5066003;28;45411;-62
2021/08/20 06:12:40;;;;;;;;;6.00;5.67;;;;;21.72;52.25;101127.31;5068854;28;45454;-64
2021/08/20 06:15:06;;;;;;;;;5.00;5.00;;;;;21.73;52.23;101126.34;5066597;28;48162;-63
2021/08/20 06:17:32;;;;;;;;;5.50;5.00;;;;;21.77;52.55;101129.72;5078799;27;45673;-62
2021/08/20 06:19:57;;;;;;;;;8.67;7.00;;;;;21.78;52.07;101127.88;5078027;28;45336;-63
2021/08/20 06:22:23;;;;;;;;;4.67;4.67;;;;;21.80;52.60;101128.66;5079152;27;45434;-63
2021/08/20 06:24:48;;;;;;;;;5.67;5.00;;;;;21.82;52.16;101127.59;5076499;28;46381;-64
2021/08/20 06:27:14;;;;;;;;;6.75;6.75;;;;;21.85;51.95;101129.22;5070021;27;45749;-62
2021/08/20 06:29:39;;;;;;;;;8.33;6.00;;;;;21.87;52.57;101124.63;5079542;27;45461;-64
2021/08/20 06:32:05;;;;;;;;;4.00;4.00;;;;;21.88;51.85;101138.03;5059334;28;45337;-62
2021/08/20 06:34:32;;;;;;;;;9.00;8.00;;;;;21.89;51.85;101130.78;5077852;28;46290;-63
2021/08/20 06:36:58;;;;;;;;;5.00;5.00;;;;;21.90;52.50;101137.94;5073385;27;45358;-62
2021/08/20 06:39:23;;;;;;;;;5.50;5.50;;;;;21.92;51.83;101136.88;5058786;28;45328;-63
2021/08/20 06:41:49;;;;;;;;;6.00;6.00;;;;;21.94;52.44;101128.66;5058885;28;45325;-62
2021/08/20 06:44:14;;;;;;;;;5.00;5.00;;;;;21.96;52.05;101134.81;5059766;28;47258;-62
2021/08/20 06:46:40;;;;;;;;;5.00;5.00;;;;;21.99;51.87;101131.97;5059011;28;45303;-62
2021/08/20 06:49:05;;;;;;;;;7.25;7.25;;;;;21.99;52.23;101124.72;5062084;28;45380;-63
2021/08/20 06:51:31;;;;;;;;;5.00;5.00;;;;;22.00;52.46;101126.44;5061241;28;45389;-62
2021/08/20 06:53:56;;;;;;;;;6.00;5.50;;;;;22.03;51.85;101131.66;5059341;28;47451;-62
2021/08/20 06:56:22;;;;;;;;;7.25;6.25;;;;;22.04;51.80;101128.00;5058648;27;45436;-62
2021/08/20 06:58:47;;;;;;;;;5.00;5.00;;;;;22.08;51.74;101131.38;5072491;28;45337;-61
2021/08/20 07:01:14;;;;;;;;;5.00;4.67;;;;;22.10;52.31;101136.69;5060118;27;45544;-61
2021/08/20 07:03:39;;;;;;;;;6.67;6.67;;;;;22.14;51.93;101140.97;5057337;28;47412;-62
2021/08/20 07:06:05;;;;;;;;;7.00;5.25;;;;;22.14;51.92;101133.72;5057491;28;45564;-61
2021/08/20 07:08:30;;;;;;;;;5.25;5.25;;;;;22.16;52.33;101145.31;5057076;28;45568;-62
2021/08/20 07:10:56;;;;;;;;;6.00;6.00;;;;;22.19;52.12;101136.13;5058482;28;45427;-62
2021/08/20 07:13:21;;;;;;;;;8.33;7.33;;;;;22.21;52.13;101131.47;5058489;28;48359;-62
2021/08/20 07:15:47;;;;;;;;;6.33;6.00;;;;;22.24;52.02;101134.03;5059750;28;45418;-55
2021/08/20 07:18:13;;;;;;;;;6.00;6.00;;;;;22.26;51.94;101137.47;5053570;28;45526;-56
2021/08/20 07:20:38;;;;;;;;;8.67;8.67;;;;;22.27;51.75;101140.09;5058321;28;45474;-56
2021/08/20 07:23:04;;;;;;;;;5.33;4.67;;;;;22.28;51.58;101141.81;5049071;28;47214;-57
2021/08/20 07:25:29;;;;;;;;;6.00;6.00;;;;;22.32;51.76;101147.91;5069459;27;45352;-56
2021/08/20 07:27:55;;;;;;;;;7.00;7.00;;;;;22.32;51.88;101142.50;5064568;27;45524;-57
2021/08/20 07:30:20;;;;;;;;;6.67;6.00;;;;;22.32;51.41;101143.34;5056550;28;45471;-56
2021/08/20 07:32:46;;;;;;;;;7.00;6.00;;;;;22.33;51.79;101145.09;5058846;28;45383;-57
2021/08/20 07:35:12;;;;;;;;;5.67;5.67;;;;;22.36;52.04;101154.88;5057316;28;45403;-57
2021/08/20 07:37:37;;;;;;;;;10.33;7.67;;;;;22.37;51.97;101148.50;5058448;28;45314;-57
2021/08/20 07:40:05;;;;;;;;;7.00;7.00;;;;;22.38;52.05;101150.22;5056593;28;45659;-57
2021/08/20 07:42:30;;;;;;;;;4.33;4.00;;;;;22.41;51.54;101150.03;5051169;27;45705;-56
2021/08/20 07:44:56;;;;;;;;;5.33;5.33;;;;;22.42;51.35;101156.28;5058881;28;45584;-55
2021/08/20 07:47:21;;;;;;;;;7.00;7.00;;;;;22.45;51.79;101158.78;5058262;28;45736;-54
2021/08/20 07:49:47;;;;;;;;;8.00;7.00;;;;;22.47;51.70;101154.16;5058089;28;45364;-55
2021/08/20 07:52:12;;;;;;;;;10.75;8.75;;;;;22.49;51.79;101158.53;5058348;28;47983;-57
2021/08/20 07:54:38;;;;;;;;;6.00;6.00;;;;;22.51;51.23;101162.00;5057913;28;45412;-56
2021/08/20 07:57:04;;;;;;;;;9.25;9.25;;;;;22.52;51.16;101154.75;5049109;28;45377;-56
2021/08/20 07:59:29;;;;;;;;;6.50;6.50;;;;;22.52;51.41;101157.44;5073539;28;45574;-56
2021/08/20 08:01:55;;;;;;;;;7.50;7.00;;;;;22.53;51.69;101157.34;5072775;28;48246;-56
2021/08/20 08:04:20;;;;;;;;;7.25;7.25;;;;;22.56;51.21;101167.09;5056535;27;45741;-56
2021/08/20 08:06:46;;;;;;;;;9.75;9.25;;;;;22.58;51.23;101154.31;5066907;28;45649;-56
2021/08/20 08:09:11;;;;;;;;;6.75;5.50;;;;;22.59;51.34;101166.88;5061187;27;45334;-57
2021/08/20 08:11:36;;;;;;;;;9.33;8.67;;;;;22.60;51.81;101172.19;5065060;28;47396;-57
2021/08/20 08:14:04;;;;;;;;;8.33;8.33;;;;;22.61;51.41;101176.66;5063868;28;45421;-57
2021/08/20 08:16:31;;;;;;;;;10.00;10.00;;;;;22.64;51.59;101174.72;5063062;28;45402;-57
2021/08/20 08:18:58;;;;;;;;;8.00;6.25;;;;;22.66;51.19;101179.06;5070286;28;45610;-56
2021/08/20 08:21:23;;;;;;;;;9.75;9.75;;;;;22.66;51.28;101168.25;5071666;27;47344;-57
2021/08/20 08:23:49;;;;;;;;;11.75;9.25;;;;;22.68;51.12;101177.13;5069055;28;45515;-56
2021/08/20 08:26:14;;;;;;;;;8.00;8.00;;;;;22.69;51.48;101175.28;5064097;27;45445;-55
2021/08/20 08:28:40;;;;;;;;;10.33;9.00;;;;;22.72;51.50;101178.66;5066997;28;45481;-57
2021/08/20 08:31:05;;;;;;;;;9.25;8.25;;;;;22.73;51.14;101180.38;5050682;28;45463;-56
2021/08/20 08:33:31;;;;;;;;;9.75;9.75;;;;;22.76;51.21;101191.03;5069387;28;45393;-57
2021/08/20 08:35:56;;;;;;;;;9.00;9.00;;;;;22.78;51.26;101182.81;5065735;27;45406;-57
2021/08/20 08:38:22;;;;;;;;;7.00;7.00;;;;;22.80;51.04;101191.69;5074119;28;45440;-57
2021/08/20 08:40:48;;;;;;;;;9.00;9.00;;;;;22.84;51.06;101183.28;5074605;27;48166;-56
2021/08/20 08:43:15;;;;;;;;;9.33;9.33;;;;;22.88;50.95;101186.69;5054660;28;45354;-57
2021/08/20 08:45:41;;;;;;;;;7.67;7.33;;;;;22.93;50.81;101194.50;5066006;28;45381;-57
2021/08/20 08:48:11;;;;;;;;;8.00;7.33;;;;;22.97;50.59;101193.31;5068672;28;45364;-56
2021/08/20 08:50:38;;;;;;;;;11.00;9.00;;;;;23.00;50.50;101194.00;5065294;27;47633;-57
2021/08/20 08:53:04;;;;;;;;;9.00;7.33;;;;;23.05;50.53;101196.41;5064893;27;45889;-56
2021/08/20 08:55:30;;;;;;;;;8.33;7.00;;;;;23.09;51.02;101196.06;5070920;28;45447;-57
2021/08/20 08:57:56;;;;;;;;;7.00;5.67;;;;;23.16;50.62;101199.25;5078602;27;45485;-56
2021/08/20 09:00:30;;;;;;;;;10.67;8.67;;;;;23.21;50.53;101194.41;5061794;28;47997;-57
2021/08/20 09:02:55;;;;;;;;;8.00;7.00;;;;;23.26;50.56;101191.41;5069492;28;45393;-57
2021/08/20 09:05:21;;;;;;;;;8.33;8.33;;;;;23.31;50.29;101190.09;5057766;28;45647;-56
2021/08/20 09:07:54;;;;;;;;;6.00;6.00;;;;;23.35;50.25;101196.19;5066007;28;45405;-56
2021/08/20 09:10:22;;;;;;;;;5.67;5.67;;;;;23.38;50.38;101190.56;5065050;28;45661;-56
2021/08/20 09:12:50;;;;;;;;;8.00;7.00;;;;;23.40;50.04;101197.63;5065568;28;45311;-57
2021/08/20 09:15:17;;;;;;;;;7.00;7.00;;;;;23.41;49.99;101193.06;5069928;28;45515;-57
2021/08/20 09:17:55;;;;;;;;;8.33;8.00;;;;;23.46;49.84;101193.63;5066317;28;45306;-56
2021/08/20 09:20:27;;;;;;;;;8.33;8.00;;;;;23.50;50.17;101197.84;5061391;28;47592;-56
2021/08/20 09:22:55;;;;;;;;;7.67;7.67;;;;;23.55;49.86;101193.00;5067550;28;46002;-56
2021/08/20 09:25:44;;;;;;;;;6.33;6.33;;;;;23.61;49.36;101187.16;5067709;27;45279;-57
2021/08/20 09:28:18;;;;;;;;;5.00;5.00;;;;;23.64;49.52;101187.00;5083574;27;45456;-57
2021/08/20 09:30:59;;;;;;;;;5.33;5.33;;;;;23.70;49.57;101186.53;5061260;28;47805;-57
2021/08/20 09:33:51;;;;;;;;;6.00;6.00;;;;;23.73;49.81;101180.91;5071563;27;45321;-55
2021/08/20 09:36:22;;;;;;;;;6.33;5.33;;;;;23.80;49.45;101178.66;5070650;27;45361;-57
2021/08/20 09:38:51;;;;;;;;;6.67;6.67;;;;;23.83;49.10;101174.84;5057583;27;45634;-57
2021/08/20 09:44:03;;;;;;;;;7.33;7.33;;;;;23.89;49.09;101174.44;5065094;28;45975;-57
2021/08/20 09:46:55;;;;;;;;;6.00;6.00;;;;;23.95;49.03;101182.13;5067274;27;45623;-57
2021/08/20 09:49:20;;;;;;;;;8.00;7.75;;;;;23.98;49.18;101180.06;5074871;27;45423;-56
2021/08/20 09:51:51;;;;;;;;;9.33;7.33;;;;;24.05;49.02;101183.22;5060571;28;46710;-58
2021/08/20 09:54:22;;;;;;;;;7.33;7.33;;;;;24.11;49.07;101181.91;5061974;27;45418;-60
2021/08/20 09:56:48;;;;;;;;;7.00;6.75;;;;;24.17;48.87;101184.19;5089381;27;45465;-57
2021/08/20 09:59:14;;;;;;;;;7.00;7.00;;;;;24.22;48.89;101187.44;5059504;27;45506;-56
2021/08/20 10:01:42;;;;;;;;;6.00;5.50;;;;;24.28;48.83;101185.16;5050900;28;47230;-56
2021/08/20 10:04:16;;;;;;;;;6.00;6.00;;;;;24.36;48.86;101187.34;5054956;28;45696;-57
2021/08/20 10:06:44;;;;;;;;;4.75;4.75;;;;;24.44;48.53;101194.94;5052408;28;45365;-56
2021/08/20 10:09:12;;;;;;;;;7.00;7.00;;;;;24.47;48.29;101192.88;5053503;28;45380;-56
2021/08/20 10:11:45;;;;;;;;;5.00;5.00;;;;;24.53;48.27;101197.00;5054263;28;47695;-56
2021/08/20 10:14:12;;;;;;;;;9.25;7.75;;;;;24.59;48.31;101191.13;5059189;28;45852;-56
2021/08/20 10:16:38;;;;;;;;;7.75;7.25;;;;;24.62;47.89;101193.59;5059370;28;45472;-57
2021/08/20 10:19:07;;;;;;;;;4.75;4.75;;;;;24.64;47.86;101184.38;5060215;28;45810;-56
2021/08/20 10:21:35;;;;;;;;;8.25;5.75;;;;;24.68;47.83;101189.59;5058008;28;46637;-57
2021/08/20 10:24:01;;;;;;;;;6.75;5.75;;;;;24.71;47.37;101189.34;5092065;27;45439;-57
2021/08/20 10:26:29;;;;;;;;;8.00;6.75;;;;;24.76;47.14;101195.31;5059178;28;45495;-57
2021/08/20 10:28:56;;;;;;;;;3.00;3.00;;;;;24.79;47.26;101192.38;5057789;28;45244;-57
2021/08/20 10:31:23;;;;;;;;;6.00;4.00;;;;;24.86;47.34;101194.50;5051889;28;47397;-57
2021/08/20 10:33:49;;;;;;;;;3.67;3.67;;;;;24.89;46.96;101194.28;5056985;28;45636;-57
2021/08/20 10:36:15;;;;;;;;;7.25;5.75;;;;;24.93;46.88;101195.81;5059575;28;45328;-58
2021/08/20 10:38:47;;;;;;;;;5.00;5.00;;;;;24.96;46.95;101189.28;5059044;28;45385;-58
2021/08/20 10:41:20;;;;;;;;;4.33;4.33;;;;;25.03;46.92;101196.03;5053033;28;48107;-56
2021/08/20 10:44:01;;;;;;;;;7.00;7.00;;;;;25.09;46.57;101192.84;5046236;28;45387;-58
2021/08/20 10:46:32;;;;;;;;;7.00;5.67;;;;;25.14;46.92;101192.50;5054083;28;45437;-54
2021/08/20 10:49:18;;;;;;;;;5.50;5.00;;;;;25.19;46.80;101201.19;5051413;28;45306;-57
2021/08/20 10:51:49;;;;;;;;;3.00;3.00;;;;;25.23;46.31;101195.38;5044188;28;47638;-56
2021/08/20 10:54:24;;;;;;;;;3.00;3.00;;;;;25.24;46.06;101186.25;5053956;28;45224;-57
2021/08/20 10:56:50;;;;;;;;;3.00;3.00;;;;;25.26;45.21;101185.25;5058274;28;45811;-57
2021/08/20 10:59:37;;;;;;;;;2.67;2.67;;;;;25.27;45.13;101189.72;5059008;28;45499;-57
2021/08/20 11:02:18;;;;;;;;;2.33;2.33;;;;;25.26;45.03;101180.69;5050001;28;47682;-58
2021/08/20 11:05:03;;;;;;;;;3.33;3.33;;;;;25.26;44.87;101188.84;5074018;28;45422;-58
2021/08/20 11:07:38;;;;;;;;;3.00;3.00;;;;;25.28;45.33;101183.28;5056356;28;45402;-57
2021/08/20 11:10:10;;;;;;;;;3.00;2.67;;;;;25.29;44.89;101182.34;5052661;28;45373;-55
2021/08/20 11:12:49;;;;;;;;;3.67;3.67;;;;;25.32;44.77;101193.84;5058190;28;47144;-57
2021/08/20 11:15:18;;;;;;;;;4.00;3.67;;;;;25.34;44.93;101191.00;5058630;28;45465;-58
2021/08/20 11:18:03;;;;;;;;;2.00;2.00;;;;;25.32;44.71;101185.69;5058772;28;45329;-57
2021/08/20 11:20:35;;;;;;;;;1.33;1.33;;;;;25.28;44.02;101184.16;5047461;28;45394;-60
2021/08/20 11:23:13;;;;;;;;;3.00;3.00;;;;;25.26;44.23;101183.41;5048674;28;47157;-59
2021/08/20 11:25:58;;;;;;;;;2.00;2.00;;;;;25.24;43.84;101183.53;5046068;28;45439;-57